Time;durP1;ratioP1;P1;durP2;ratioP2;P2;SDS_P1;SDS_P2;PMS_P1;PMS_P2;Temp;Humidity;BMP_temperature;BMP_pressure;BME280_temperature;BME280_humidity;BME280_pressure;Samples;Min_cycle;Max_cycle;Signal;HPM_P1;HPM_P2
2023/08/28 00:01:25;;;;;;;4.60;1.92;;;;;13.70;100686.00;;;;10100068;28;20273;-77
2023/08/28 00:06:26;;;;;;;5.40;1.80;;;;;13.60;100692.00;;;;10117006;28;20722;-77
2023/08/28 00:11:27;;;;;;;6.03;2.72;;;;;13.50;100691.00;;;;10095892;28;20277;-79
2023/08/28 00:16:29;;;;;;;7.30;2.20;;;;;13.40;100687.00;;;;10032305;28;20218;-78
2023/08/28 00:21:30;;;;;;;5.73;2.70;;;;;13.30;100680.00;;;;10071731;28;20736;-77
2023/08/28 00:26:32;;;;;;;3.05;1.80;;;;;13.20;100687.00;;;;10091746;28;20256;-78
2023/08/28 00:31:33;;;;;;;5.27;2.40;;;;;13.20;100683.00;;;;10085072;28;21154;-79
2023/08/28 00:36:34;;;;;;;2.37;2.10;;;;;13.20;100686.00;;;;10086861;28;20197;-78
2023/08/28 00:41:36;;;;;;;5.95;2.55;;;;;13.10;100688.00;;;;10065165;28;21388;-78
2023/08/28 00:46:37;;;;;;;5.45;2.63;;;;;13.00;100684.00;;;;10095674;28;20234;-78
2023/08/28 00:51:39;;;;;;;5.73;2.53;;;;;12.90;100675.00;;;;10093265;28;20364;-78
2023/08/28 00:56:42;;;;;;;5.53;2.83;;;;;12.90;100681.00;;;;10048289;28;20214;-78
2023/08/28 01:01:44;;;;;;;7.80;2.73;;;;;12.80;100667.00;;;;10048809;28;20227;-78
2023/08/28 01:07:02;;;;;;;4.20;2.93;;;;;12.80;100663.00;;;;10064945;28;21737;-78
2023/08/28 01:12:28;;;;;;;7.90;2.97;;;;;12.80;100663.00;;;;10070825;28;20221;-78
2023/08/28 01:17:31;;;;;;;3.87;3.03;;;;;12.70;100650.00;;;;10099590;28;20615;-78
2023/08/28 01:22:44;;;;;;;7.33;3.00;;;;;12.70;100655.00;;;;10060722;28;20211;-77
2023/08/28 01:27:45;;;;;;;5.13;2.63;;;;;12.60;100654.00;;;;10060660;28;20210;-78
2023/08/28 01:32:47;;;;;;;6.57;2.80;;;;;12.50;100654.00;;;;10078156;28;20533;-77
2023/08/28 01:37:53;;;;;;;4.67;3.03;;;;;12.50;100643.00;;;;10059747;28;20210;-78
2023/08/28 01:42:56;;;;;;;5.43;3.10;;;;;12.50;100650.00;;;;10058081;28;20250;-78
2023/08/28 01:47:57;;;;;;;7.13;3.50;;;;;12.50;100653.00;;;;10062896;28;20318;-78
2023/08/28 01:52:59;;;;;;;7.13;3.60;;;;;12.40;100648.00;;;;10065311;28;20256;-77
2023/08/28 01:58:01;;;;;;;7.43;3.63;;;;;12.40;100648.00;;;;10097605;28;21676;-78
2023/08/28 02:03:02;;;;;;;6.93;3.43;;;;;12.30;100632.00;;;;10061569;28;20223;-79
2023/08/28 02:08:05;;;;;;;4.57;3.03;;;;;12.30;100639.00;;;;10054593;28;20230;-78
2023/08/28 02:13:06;;;;;;;4.27;2.70;;;;;12.20;100647.00;;;;10062535;28;20270;-78
2023/08/28 02:18:07;;;;;;;6.17;3.23;;;;;12.10;100652.00;;;;10048162;28;20248;-78
2023/08/28 02:23:09;;;;;;;6.13;2.90;;;;;12.10;100650.00;;;;10050095;28;20234;-77
2023/08/28 02:28:10;;;;;;;4.73;2.83;;;;;12.00;100643.00;;;;10053477;28;20294;-78
2023/08/28 02:33:12;;;;;;;8.93;3.77;;;;;11.90;100630.00;;;;10066858;28;20929;-78
2023/08/28 02:38:14;;;;;;;7.63;3.37;;;;;11.90;100628.00;;;;10079071;28;20745;-79
2023/08/28 02:43:15;;;;;;;5.13;3.10;;;;;11.80;100621.00;;;;10081341;28;20230;-78
2023/08/28 02:48:19;;;;;;;3.70;3.00;;;;;11.80;100614.00;;;;10044134;28;20565;-79
2023/08/28 02:53:20;;;;;;;9.90;3.83;;;;;11.70;100620.00;;;;10086176;28;20472;-77
2023/08/28 02:58:21;;;;;;;4.37;3.33;;;;;11.70;100621.00;;;;10056087;28;20668;-78
2023/08/28 03:03:23;;;;;;;6.63;4.80;;;;;11.70;100636.00;;;;10064576;28;20827;-78
2023/08/28 03:08:25;;;;;;;8.43;5.00;;;;;11.80;100636.00;;;;10052498;28;20230;-78
2023/08/28 03:13:26;;;;;;;6.93;5.20;;;;;11.90;100634.00;;;;10081982;28;20203;-78
2023/08/28 03:18:28;;;;;;;7.47;4.93;;;;;11.90;100634.00;;;;10090496;28;20210;-78
2023/08/28 03:23:29;;;;;;;7.53;4.83;;;;;11.90;100646.00;;;;10067015;28;20234;-79
2023/08/28 03:28:30;;;;;;;10.30;5.37;;;;;11.90;100670.00;;;;10067877;28;21900;-78
2023/08/28 03:33:32;;;;;;;7.27;4.97;;;;;11.80;100672.00;;;;10058705;28;20209;-78
2023/08/28 03:38:34;;;;;;;7.33;5.47;;;;;11.80;100674.00;;;;10053941;28;21084;-78
2023/08/28 03:43:40;;;;;;;13.30;5.70;;;;;11.80;100677.00;;;;10045663;28;20945;-76
2023/08/28 03:48:42;;;;;;;7.03;5.10;;;;;11.90;100691.00;;;;10068307;28;20221;-77
2023/08/28 03:53:43;;;;;;;12.70;5.93;;;;;12.00;100696.00;;;;10067966;28;20613;-77
2023/08/28 03:58:44;;;;;;;10.77;5.40;;;;;12.20;100694.00;;;;10098801;28;20275;-78
2023/08/28 04:03:46;;;;;;;11.60;6.23;;;;;12.20;100687.00;;;;10071090;28;20230;-78
2023/08/28 04:08:48;;;;;;;8.90;5.13;;;;;12.30;100689.00;;;;10051285;28;20820;-77
2023/08/28 04:13:50;;;;;;;8.23;5.37;;;;;12.30;100696.00;;;;10053041;28;20684;-77
2023/08/28 04:18:52;;;;;;;9.33;5.77;;;;;12.40;100697.00;;;;10097839;28;20241;-78
2023/08/28 04:23:54;;;;;;;6.93;5.73;;;;;12.50;100694.00;;;;10067088;28;20309;-77
2023/08/28 04:28:56;;;;;;;9.33;6.40;;;;;12.50;100700.00;;;;10109959;28;20250;-77
2023/08/28 04:33:57;;;;;;;8.77;6.83;;;;;12.60;100707.00;;;;10074738;28;20216;-77
2023/08/28 04:38:59;;;;;;;7.73;6.73;;;;;12.70;100705.00;;;;10091104;28;20317;-77
2023/08/28 04:44:00;;;;;;;10.60;6.60;;;;;12.80;100690.00;;;;10084612;28;20690;-77
2023/08/28 04:49:02;;;;;;;10.10;6.43;;;;;12.90;100685.00;;;;10073206;28;20222;-76
2023/08/28 04:54:05;;;;;;;9.60;6.17;;;;;13.00;100677.00;;;;10065156;28;20218;-77
2023/08/28 04:59:06;;;;;;;10.07;7.73;;;;;13.10;100673.00;;;;10088452;28;20218;-78
2023/08/28 05:04:08;;;;;;;13.90;7.87;;;;;13.10;100674.00;;;;10098747;28;20573;-77
2023/08/28 05:09:10;;;;;;;11.33;7.70;;;;;13.20;100669.00;;;;10104983;28;20261;-78
2023/08/28 05:14:11;;;;;;;16.70;8.80;;;;;13.20;100675.00;;;;10085991;28;21931;-77
2023/08/28 05:19:13;;;;;;;15.93;9.00;;;;;13.30;100674.00;;;;10074816;28;20207;-78
2023/08/28 05:24:14;;;;;;;9.53;7.97;;;;;13.30;100664.00;;;;10102001;28;21777;-79
2023/08/28 05:29:16;;;;;;;12.53;8.63;;;;;13.40;100676.00;;;;10100720;28;20301;-78
2023/08/28 05:34:17;;;;;;;13.77;8.30;;;;;13.40;100680.00;;;;10070179;28;20472;-77
2023/08/28 05:39:18;;;;;;;14.53;8.57;;;;;13.60;100683.00;;;;10060753;28;20202;-77
2023/08/28 05:44:20;;;;;;;14.57;9.00;;;;;13.80;100678.00;;;;10100056;28;20750;-77
2023/08/28 05:49:22;;;;;;;13.63;9.63;;;;;14.00;100687.00;;;;10061628;28;20628;-77
2023/08/28 05:54:23;;;;;;;13.90;9.23;;;;;14.10;100684.00;;;;10077838;28;20218;-77
2023/08/28 05:59:25;;;;;;;14.43;9.87;;;;;14.30;100697.00;;;;10102578;28;21037;-77
2023/08/28 06:04:27;;;;;;;14.73;9.93;;;;;14.50;100682.00;;;;10111977;28;20253;-77
2023/08/28 06:09:28;;;;;;;13.93;9.88;;;;;14.80;100683.00;;;;10090366;28;20309;-77
2023/08/28 06:14:30;;;;;;;10.93;9.82;;;;;15.00;100672.00;;;;10073276;28;21284;-78
2023/08/28 06:19:31;;;;;;;15.20;9.18;;;;;15.20;100684.00;;;;10065439;28;20215;-77
2023/08/28 06:24:33;;;;;;;11.60;8.55;;;;;15.50;100680.00;;;;10068542;28;20202;-76
2023/08/28 06:29:34;;;;;;;13.77;8.38;;;;;15.80;100690.00;;;;10066077;28;20285;-77
2023/08/28 06:34:36;;;;;;;14.80;9.50;;;;;16.30;100698.00;;;;10062903;28;20229;-77
2023/08/28 06:39:37;;;;;;;14.05;7.75;;;;;16.50;100696.00;;;;10086131;28;20549;-79
2023/08/28 06:44:38;;;;;;;12.95;7.30;;;;;16.80;100697.00;;;;10095397;28;20595;-77
2023/08/28 06:49:40;;;;;;;13.60;7.88;;;;;16.90;100699.00;;;;10094240;28;20210;-78
2023/08/28 06:54:42;;;;;;;9.77;7.28;;;;;16.80;100702.00;;;;10074850;28;20366;-77
2023/08/28 06:59:53;;;;;;;10.20;7.00;;;;;16.90;100699.00;;;;10088895;28;20198;-77
2023/08/28 07:04:55;;;;;;;11.95;7.25;;;;;17.00;100714.00;;;;10092073;28;20421;-77
2023/08/28 07:09:56;;;;;;;12.65;7.30;;;;;17.10;100713.00;;;;10101224;28;20230;-77
2023/08/28 07:15:10;;;;;;;8.32;6.53;;;;;17.20;100718.00;;;;10053974;28;20297;-78
2023/08/28 07:20:11;;;;;;;12.10;6.75;;;;;17.30;100717.00;;;;10071984;28;20209;-78
2023/08/28 07:25:15;;;;;;;10.13;6.75;;;;;17.30;100710.00;;;;10072589;28;20276;-77
2023/08/28 07:30:16;;;;;;;11.40;6.80;;;;;17.50;100702.00;;;;10039197;28;20206;-77
2023/08/28 07:35:19;;;;;;;14.70;7.45;;;;;17.50;100692.00;;;;10090135;28;20859;-76
2023/08/28 07:40:20;;;;;;;8.27;7.10;;;;;17.20;100697.00;;;;10065919;28;20649;-77
2023/08/28 07:45:21;;;;;;;7.60;6.80;;;;;17.30;100705.00;;;;10096758;28;20685;-77
2023/08/28 07:50:23;;;;;;;11.30;6.38;;;;;17.60;100708.00;;;;10083125;28;20221;-77
2023/08/28 07:55:24;;;;;;;12.15;6.10;;;;;18.10;100710.00;;;;10071177;28;20274;-77
2023/08/28 08:00:26;;;;;;;18.60;7.07;;;;;18.20;100716.00;;;;10062839;28;21006;-78
2023/08/28 08:05:27;;;;;;;6.45;5.65;;;;;19.00;100717.00;;;;10030938;28;20227;-77
2023/08/28 08:10:29;;;;;;;7.72;4.53;;;;;19.70;100716.00;;;;10065724;28;20830;-77
2023/08/28 08:15:31;;;;;;;9.27;3.72;;;;;20.40;100716.00;;;;10085346;28;20361;-77
2023/08/28 08:20:33;;;;;;;6.60;3.30;;;;;20.30;100718.00;;;;10060541;28;21578;-77
2023/08/28 08:25:34;;;;;;;9.85;3.10;;;;;20.10;100727.00;;;;10055828;28;20289;-77
2023/08/28 08:30:35;;;;;;;8.73;2.72;;;;;20.30;100715.00;;;;10089559;28;20206;-77
2023/08/28 08:35:37;;;;;;;3.63;1.60;;;;;20.80;100715.00;;;;10083646;28;21515;-78
2023/08/28 08:40:40;;;;;;;4.68;1.88;;;;;21.40;100715.00;;;;10110391;28;20919;-77
2023/08/28 08:45:44;;;;;;;3.78;1.50;;;;;22.10;100716.00;;;;10083126;28;20281;-78
2023/08/28 08:50:47;;;;;;;3.13;1.10;;;;;23.10;100714.00;;;;10067701;28;20219;-78
2023/08/28 08:55:53;;;;;;;2.35;1.00;;;;;23.50;100708.00;;;;10068495;28;20222;-77
2023/08/28 09:00:54;;;;;;;3.10;1.20;;;;;22.80;100710.00;;;;10054003;28;20216;-77
2023/08/28 09:05:56;;;;;;;2.95;1.10;;;;;22.50;100706.00;;;;10101641;28;20221;-77
2023/08/28 09:11:01;;;;;;;1.10;0.98;;;;;21.80;100703.00;;;;10062805;28;20201;-77
2023/08/28 09:16:04;;;;;;;2.47;1.50;;;;;22.30;100702.00;;;;10094575;28;20450;-77
2023/08/28 09:21:10;;;;;;;4.93;1.45;;;;;22.60;100700.00;;;;10071801;28;20344;-78
2023/08/28 09:26:13;;;;;;;3.40;1.45;;;;;23.60;100688.00;;;;10100504;28;20217;-78
2023/08/28 09:31:26;;;;;;;2.25;1.65;;;;;24.50;100687.00;;;;10106009;28;20234;-78
2023/08/28 09:36:28;;;;;;;2.60;1.30;;;;;24.20;100693.00;;;;10099396;28;20355;-78
2023/08/28 09:41:39;;;;;;;3.97;1.60;;;;;23.40;100702.00;;;;10103007;28;20580;-78
2023/08/28 09:46:45;;;;;;;2.33;1.60;;;;;23.50;100700.00;;;;10117492;28;20209;-78
2023/08/28 09:51:50;;;;;;;2.05;1.50;;;;;24.60;100699.00;;;;10100653;28;20274;-78
2023/08/28 09:56:52;;;;;;;3.90;1.30;;;;;26.00;100703.00;;;;10094293;28;21163;-80
2023/08/28 10:01:54;;;;;;;2.55;1.83;;;;;27.40;100704.00;;;;10072775;28;20214;-78
2023/08/28 10:06:58;;;;;;;1.92;1.42;;;;;26.70;100711.00;;;;10103146;28;21229;-78
2023/08/28 10:12:00;;;;;;;6.13;2.05;;;;;26.60;100695.00;;;;10062363;28;21224;-78
2023/08/28 10:17:06;;;;;;;4.47;1.75;;;;;25.80;100700.00;;;;10073153;28;20221;-78
2023/08/28 10:22:08;;;;;;;2.08;1.77;;;;;24.90;100690.00;;;;10082008;28;20669;-78
2023/08/28 10:27:12;;;;;;;3.30;1.48;;;;;25.20;100701.00;;;;10074802;28;20215;-78
2023/08/28 10:32:13;;;;;;;3.42;1.50;;;;;24.90;100685.00;;;;10100409;28;20256;-78
2023/08/28 10:37:15;;;;;;;1.60;1.42;;;;;25.70;100685.00;;;;10099817;28;20233;-78
2023/08/28 10:42:30;;;;;;;3.13;1.40;;;;;25.50;100677.00;;;;10074665;28;20444;-79
2023/08/28 10:47:31;;;;;;;2.67;1.10;;;;;25.40;100675.00;;;;10093832;28;20237;-78
2023/08/28 10:52:33;;;;;;;2.70;1.40;;;;;25.90;100673.00;;;;10091535;28;20237;-78
2023/08/28 10:57:39;;;;;;;4.03;1.48;;;;;26.20;100677.00;;;;10095484;28;20198;-78
2023/08/28 11:03:08;;;;;;;3.88;1.05;;;;;26.10;100682.00;;;;10096395;28;20233;-78
2023/08/28 11:46:42;;;;;;;3.38;1.20;;;;;24.40;100667.00;;;;10513586;27;21347;-79
2023/08/28 11:51:43;;;;;;;1.25;0.93;;;;;24.10;100668.00;;;;10496514;27;20204;-79
2023/08/28 11:56:46;;;;;;;2.88;1.00;;;;;23.80;100663.00;;;;10478007;27;20285;-79
2023/08/28 12:01:48;;;;;;;3.45;1.60;;;;;24.10;100659.00;;;;10478279;27;20247;-79
2023/08/28 12:06:49;;;;;;;3.63;1.45;;;;;26.00;100672.00;;;;10476530;27;20886;-79
2023/08/28 12:11:50;;;;;;;6.45;1.40;;;;;26.30;100671.00;;;;10465729;27;21484;-77
2023/08/28 12:17:00;;;;;;;2.88;1.35;;;;;26.50;100676.00;;;;10479560;27;20199;-78
2023/08/28 12:22:05;;;;;;;2.17;1.10;;;;;25.60;100684.00;;;;10501832;27;20237;-79
2023/08/28 12:27:08;;;;;;;2.45;1.50;;;;;25.60;100680.00;;;;10485724;27;20977;-78
2023/08/28 12:32:16;;;;;;;1.60;1.25;;;;;25.20;100681.00;;;;10484501;27;20829;-79
2023/08/28 12:37:18;;;;;;;2.97;1.33;;;;;25.20;100671.00;;;;10490696;27;20207;-79
2023/08/28 12:42:20;;;;;;;3.60;0.95;;;;;25.50;100683.00;;;;10506490;27;20739;-78
2023/08/28 12:47:22;;;;;;;1.42;1.20;;;;;25.90;100677.00;;;;10506357;27;21266;-78
2023/08/28 12:52:24;;;;;;;3.78;1.60;;;;;25.50;100672.00;;;;10507611;27;20892;-79
2023/08/28 12:57:25;;;;;;;3.45;1.48;;;;;24.90;100680.00;;;;10482928;27;20199;-80
2023/08/28 13:02:26;;;;;;;1.90;1.40;;;;;24.50;100680.00;;;;10481304;27;20231;-78
2023/08/28 13:07:28;;;;;;;2.03;1.42;;;;;23.40;100692.00;;;;10456791;27;20728;-78
2023/08/28 13:12:29;;;;;;;2.15;1.55;;;;;22.60;100700.00;;;;10456104;27;20903;-79
2023/08/28 13:17:31;;;;;;;1.75;1.60;;;;;22.20;100698.00;;;;10435026;27;20226;-78
2023/08/28 13:22:32;;;;;;;4.80;1.60;;;;;22.10;100707.00;;;;10446694;27;20544;-78
2023/08/28 13:27:33;;;;;;;2.63;1.65;;;;;21.90;100702.00;;;;10460066;27;20230;-78
2023/08/28 13:32:35;;;;;;;2.25;1.88;;;;;21.50;100698.00;;;;10471220;27;20223;-78
2023/08/28 13:37:36;;;;;;;2.13;1.90;;;;;21.40;100699.00;;;;10464978;27;20298;-78
2023/08/28 13:42:38;;;;;;;3.92;2.53;;;;;21.40;100708.00;;;;10447012;28;20698;-78
2023/08/28 13:47:40;;;;;;;2.10;1.90;;;;;21.40;100701.00;;;;10447366;27;20209;-79
2023/08/28 13:52:44;;;;;;;3.25;2.42;;;;;21.40;100699.00;;;;10450517;27;20201;-78
2023/08/28 13:57:48;;;;;;;4.15;2.58;;;;;21.40;100701.00;;;;10465459;27;20721;-77
2023/08/28 14:02:49;;;;;;;2.75;2.03;;;;;21.50;100702.00;;;;10425354;27;20225;-78
2023/08/28 14:07:50;;;;;;;5.38;2.67;;;;;21.50;100702.00;;;;10455006;27;20672;-79
2023/08/28 14:12:51;;;;;;;5.00;2.25;;;;;21.30;100713.00;;;;10456462;27;20743;-78
2023/08/28 14:17:53;;;;;;;4.28;2.33;;;;;21.30;100711.00;;;;10452646;27;20975;-78
2023/08/28 14:22:54;;;;;;;3.20;2.40;;;;;21.50;100705.00;;;;10434592;27;20337;-77
2023/08/28 14:27:57;;;;;;;3.65;2.03;;;;;21.60;100701.00;;;;10459035;27;20318;-78
2023/08/28 14:33:12;;;;;;;4.47;2.33;;;;;21.90;100702.00;;;;10434292;27;20231;-79
2023/08/28 14:38:14;;;;;;;4.45;2.42;;;;;22.40;100701.00;;;;10455808;27;20193;-77
2023/08/28 14:43:15;;;;;;;5.78;3.00;;;;;22.40;100696.00;;;;10460375;27;20436;-77
2023/08/28 14:48:17;;;;;;;4.75;2.50;;;;;22.20;100702.00;;;;10456560;27;21268;-77
2023/08/28 14:53:18;;;;;;;3.05;2.17;;;;;21.70;100702.00;;;;10458989;27;20323;-77
2023/08/28 14:58:20;;;;;;;3.20;2.33;;;;;21.10;100714.00;;;;10422264;27;21166;-76
2023/08/28 15:03:23;;;;;;;4.90;2.50;;;;;21.00;100720.00;;;;10431430;27;20240;-77
2023/08/28 15:08:25;;;;;;;4.22;2.35;;;;;21.30;100720.00;;;;10439460;27;20605;-78
2023/08/28 15:13:26;;;;;;;3.45;2.67;;;;;21.60;100710.00;;;;10434722;27;20473;-77
2023/08/28 15:18:27;;;;;;;2.83;1.95;;;;;21.60;100709.00;;;;10432735;27;20207;-78
2023/08/28 15:23:29;;;;;;;3.90;2.55;;;;;21.80;100720.00;;;;10432825;27;21481;-77
2023/08/28 15:28:30;;;;;;;2.67;1.88;;;;;22.10;100715.00;;;;10417251;27;20539;-78
2023/08/28 15:33:31;;;;;;;3.63;1.80;;;;;21.90;100718.00;;;;10419361;28;20717;-79
2023/08/28 15:38:33;;;;;;;3.30;1.75;;;;;21.50;100715.00;;;;10462642;28;20223;-78
2023/08/28 15:43:34;;;;;;;4.38;1.60;;;;;21.20;100717.00;;;;10446978;28;20215;-78
2023/08/28 15:48:35;;;;;;;2.10;1.90;;;;;20.90;100738.00;;;;10458772;27;20234;-78
2023/08/28 15:53:37;;;;;;;1.95;1.40;;;;;20.90;100742.00;;;;10460542;27;20246;-78
2023/08/28 15:58:38;;;;;;;1.63;1.52;;;;;20.80;100744.00;;;;10463833;27;21914;-79
2023/08/28 16:03:39;;;;;;;3.40;2.03;;;;;20.70;100739.00;;;;10430745;27;22054;-78
2023/08/28 16:08:41;;;;;;;3.15;1.77;;;;;20.90;100747.00;;;;10462588;27;20279;-78
2023/08/28 16:13:42;;;;;;;3.25;1.63;;;;;20.90;100746.00;;;;10460064;27;20288;-78
2023/08/28 16:18:44;;;;;;;2.03;1.83;;;;;21.00;100749.00;;;;10464250;27;20205;-78
2023/08/28 16:23:45;;;;;;;3.20;1.90;;;;;21.10;100757.00;;;;10460014;27;20344;-79
2023/08/28 16:28:47;;;;;;;2.55;1.30;;;;;21.00;100759.00;;;;10462246;27;20319;-78
2023/08/28 16:33:48;;;;;;;1.80;1.40;;;;;20.90;100763.00;;;;10430697;27;20208;-78
2023/08/28 16:38:49;;;;;;;1.98;1.45;;;;;20.60;100750.00;;;;10421351;27;20896;-78
2023/08/28 16:43:50;;;;;;;2.17;1.63;;;;;20.20;100763.00;;;;10419916;27;20303;-77
2023/08/28 16:48:52;;;;;;;4.50;1.65;;;;;19.70;100753.00;;;;10427469;27;20216;-78
2023/08/28 16:53:53;;;;;;;4.90;1.80;;;;;19.00;100771.00;;;;10421643;27;20197;-78
2023/08/28 16:58:55;;;;;;;3.83;1.83;;;;;17.90;100774.00;;;;10438587;27;20207;-78
2023/08/28 17:03:57;;;;;;;3.78;2.55;;;;;17.20;100764.00;;;;10440367;27;20307;-78
2023/08/28 17:08:58;;;;;;;4.38;3.58;;;;;16.80;100783.00;;;;10419590;27;20638;-78
2023/08/28 17:13:59;;;;;;;5.90;4.22;;;;;16.80;100787.00;;;;10437694;27;20593;-77
2023/08/28 17:19:01;;;;;;;4.63;3.78;;;;;16.70;100796.00;;;;10437678;27;20204;-76
2023/08/28 17:24:03;;;;;;;4.97;4.03;;;;;16.70;100797.00;;;;10406102;27;20287;-78
2023/08/28 17:29:04;;;;;;;3.90;3.53;;;;;16.70;100801.00;;;;10440882;27;20204;-77
2023/08/28 17:34:05;;;;;;;4.20;3.75;;;;;16.80;100804.00;;;;10435023;27;20290;-78
2023/08/28 17:39:09;;;;;;;3.13;2.83;;;;;16.70;100799.00;;;;10438374;27;20228;-78
2023/08/28 17:44:12;;;;;;;3.42;3.13;;;;;16.60;100788.00;;;;10419427;27;20483;-78
2023/08/28 17:49:14;;;;;;;3.67;3.38;;;;;16.70;100797.00;;;;10403009;27;20931;-78
2023/08/28 17:54:16;;;;;;;3.55;3.13;;;;;16.70;100786.00;;;;10435163;27;20203;-77
2023/08/28 17:59:17;;;;;;;2.47;2.28;;;;;16.60;100786.00;;;;10436061;27;20808;-77
2023/08/28 18:04:19;;;;;;;2.83;2.38;;;;;16.60;100793.00;;;;10435676;27;20212;-76
2023/08/28 18:09:20;;;;;;;3.42;2.95;;;;;16.50;100788.00;;;;10440926;27;20296;-76
2023/08/28 18:14:21;;;;;;;3.72;3.13;;;;;16.40;100786.00;;;;10460600;27;20203;-77
2023/08/28 18:19:23;;;;;;;4.50;2.83;;;;;16.40;100797.00;;;;10450908;28;20230;-78
2023/08/28 18:24:24;;;;;;;2.97;2.72;;;;;16.30;100793.00;;;;10430581;27;20809;-78
2023/08/28 18:29:28;;;;;;;5.60;3.08;;;;;16.20;100801.00;;;;10465492;27;20205;-78
2023/08/28 18:34:30;;;;;;;3.30;3.00;;;;;16.20;100799.00;;;;10451766;27;20219;-77
2023/08/28 18:39:31;;;;;;;3.78;3.30;;;;;16.10;100800.00;;;;10445854;27;20907;-77
2023/08/28 18:44:32;;;;;;;3.45;3.15;;;;;16.10;100807.00;;;;10463250;27;20243;-78
2023/08/28 18:49:34;;;;;;;3.35;3.05;;;;;16.00;100817.00;;;;10448497;27;21130;-78
2023/08/28 18:54:35;;;;;;;2.47;2.28;;;;;16.00;100813.00;;;;10437543;27;20204;-77
2023/08/28 18:59:39;;;;;;;2.35;2.15;;;;;16.00;100820.00;;;;10448196;27;20285;-78
2023/08/28 19:04:40;;;;;;;2.67;2.22;;;;;16.00;100824.00;;;;10447610;28;21155;-78
2023/08/28 19:09:42;;;;;;;3.70;3.28;;;;;16.00;100831.00;;;;10444532;27;22197;-77
2023/08/28 19:14:43;;;;;;;2.85;2.65;;;;;16.00;100837.00;;;;10455218;27;20200;-76
2023/08/28 19:19:44;;;;;;;5.57;2.97;;;;;16.00;100838.00;;;;10454653;27;20247;-78
2023/08/28 19:24:45;;;;;;;4.18;3.40;;;;;15.90;100836.00;;;;10441030;28;20244;-78
2023/08/28 19:29:47;;;;;;;3.45;3.15;;;;;16.00;100848.00;;;;10464086;27;21015;-78
2023/08/28 19:34:49;;;;;;;4.10;2.83;;;;;16.00;100847.00;;;;10463723;27;20188;-77
2023/08/28 19:39:51;;;;;;;3.42;3.00;;;;;16.00;100860.00;;;;10415806;27;20203;-78
2023/08/28 19:44:53;;;;;;;7.80;3.40;;;;;16.00;100862.00;;;;10436942;27;20753;-78
2023/08/28 19:49:54;;;;;;;4.00;3.03;;;;;15.90;100859.00;;;;10420006;27;20307;-78
2023/08/28 19:54:56;;;;;;;2.80;2.60;;;;;15.90;100866.00;;;;10434663;27;20273;-78
2023/08/28 19:59:57;;;;;;;2.85;2.40;;;;;15.80;100863.00;;;;10439889;27;21559;-78
2023/08/28 20:04:58;;;;;;;4.00;3.03;;;;;15.80;100857.00;;;;10419950;28;21602;-78
2023/08/28 20:10:00;;;;;;;3.10;2.88;;;;;15.70;100851.00;;;;10429302;27;21609;-79
2023/08/28 20:15:01;;;;;;;4.95;3.30;;;;;15.70;100850.00;;;;10428061;27;20331;-77
2023/08/28 20:20:08;;;;;;;3.90;3.50;;;;;15.70;100861.00;;;;10445586;27;20689;-78
2023/08/28 20:25:09;;;;;;;3.92;3.50;;;;;15.70;100864.00;;;;10426054;27;20425;-79
2023/08/28 20:30:11;;;;;;;4.85;3.92;;;;;15.70;100858.00;;;;10448211;27;20292;-78
2023/08/28 20:35:12;;;;;;;7.63;4.55;;;;;15.70;100865.00;;;;10426996;28;20703;-79
2023/08/28 20:40:14;;;;;;;4.40;4.05;;;;;15.70;100855.00;;;;10411991;27;20266;-78
2023/08/28 20:45:15;;;;;;;7.32;4.82;;;;;15.70;100854.00;;;;10441133;27;20220;-79
2023/08/28 20:50:17;;;;;;;6.35;4.53;;;;;15.60;100846.00;;;;10409025;28;21195;-77
2023/08/28 20:55:18;;;;;;;4.07;3.70;;;;;15.60;100846.00;;;;10443712;27;20274;-77
2023/08/28 21:00:20;;;;;;;4.82;4.30;;;;;15.50;100844.00;;;;10425053;27;20327;-77
2023/08/28 21:05:22;;;;;;;4.82;4.13;;;;;15.50;100838.00;;;;10428897;27;20269;-78
2023/08/28 21:10:23;;;;;;;4.10;3.78;;;;;15.40;100836.00;;;;10446202;27;20224;-78
2023/08/28 21:15:25;;;;;;;5.07;4.40;;;;;15.30;100827.00;;;;10408394;28;20300;-78
2023/08/28 21:20:27;;;;;;;4.38;3.97;;;;;15.30;100827.00;;;;10427076;27;20438;-78
2023/08/28 21:25:28;;;;;;;5.15;4.65;;;;;15.20;100821.00;;;;10422196;27;20220;-78
2023/08/28 21:30:30;;;;;;;5.82;5.35;;;;;15.00;100805.00;;;;10446178;27;20208;-78
2023/08/28 21:35:31;;;;;;;5.78;5.20;;;;;14.90;100815.00;;;;10424321;27;20209;-77
2023/08/28 21:40:32;;;;;;;11.05;5.82;;;;;14.70;100810.00;;;;10441123;27;21540;-78
2023/08/28 21:45:34;;;;;;;7.22;5.53;;;;;14.70;100820.00;;;;10427322;27;20472;-78
2023/08/28 21:50:36;;;;;;;6.15;5.53;;;;;14.60;100814.00;;;;10425704;28;20674;-78
2023/08/28 21:55:56;;;;;;;8.73;7.60;;;;;14.50;100818.00;;;;10440982;27;20974;-78
2023/08/28 22:01:16;;;;;;;6.87;6.20;;;;;14.50;100809.00;;;;10443124;27;20656;-77
2023/08/28 22:06:36;;;;;;;8.25;7.45;;;;;14.40;100809.00;;;;10438829;27;20392;-78
2023/08/28 22:11:37;;;;;;;9.50;8.60;;;;;14.40;100809.00;;;;10442461;27;20193;-78
2023/08/28 22:16:47;;;;;;;11.35;10.23;;;;;14.50;100813.00;;;;10423941;27;20398;-79
2023/08/28 22:21:48;;;;;;;13.25;11.05;;;;;14.50;100810.00;;;;10423173;27;20829;-78
2023/08/28 22:26:50;;;;;;;13.05;9.27;;;;;14.50;100799.00;;;;10404663;27;20251;-78
2023/08/28 22:31:51;;;;;;;15.93;10.63;;;;;14.50;100787.00;;;;10423764;27;20212;-78
2023/08/28 22:36:53;;;;;;;12.88;9.88;;;;;14.50;100789.00;;;;10425684;28;20616;-78
2023/08/28 22:41:54;;;;;;;12.90;10.30;;;;;14.50;100799.00;;;;10423225;27;20203;-77
2023/08/28 22:46:55;;;;;;;11.73;9.90;;;;;14.60;100795.00;;;;10420026;27;20227;-78
2023/08/28 22:51:56;;;;;;;12.20;10.05;;;;;14.60;100788.00;;;;10423429;27;20440;-78
2023/08/28 22:56:58;;;;;;;12.73;11.43;;;;;14.70;100790.00;;;;10441546;27;20938;-78
2023/08/28 23:01:59;;;;;;;13.73;12.32;;;;;14.70;100790.00;;;;10438976;27;20999;-78
2023/08/28 23:07:02;;;;;;;15.30;13.65;;;;;14.70;100796.00;;;;10441549;27;20663;-78
2023/08/28 23:12:03;;;;;;;14.20;12.80;;;;;14.70;100792.00;;;;10438068;27;20204;-77
2023/08/28 23:17:04;;;;;;;14.40;13.00;;;;;14.80;100785.00;;;;10441143;27;20208;-78
2023/08/28 23:22:06;;;;;;;15.15;12.57;;;;;14.80;100789.00;;;;10421831;27;20289;-78
2023/08/28 23:27:08;;;;;;;13.43;11.98;;;;;14.80;100795.00;;;;10441218;27;21539;-78
2023/08/28 23:32:10;;;;;;;16.40;12.55;;;;;14.80;100784.00;;;;10423323;27;20208;-78
2023/08/28 23:37:11;;;;;;;13.85;12.45;;;;;14.70;100782.00;;;;10442147;27;20222;-78
2023/08/28 23:42:12;;;;;;;13.10;11.50;;;;;14.60;100785.00;;;;10423448;27;20205;-78
2023/08/28 23:47:13;;;;;;;14.27;11.38;;;;;14.60;100783.00;;;;10422699;27;20212;-78
2023/08/28 23:52:15;;;;;;;14.13;11.05;;;;;14.50;100769.00;;;;10418461;27;21724;-79
2023/08/28 23:57:16;;;;;;;15.38;12.20;;;;;14.50;100762.00;;;;10420005;27;20790;-79
